createdAt,value
2019-05-29T00:01:20.377Z,65.60
2019-05-29T00:03:45.639Z,64.25
2019-05-29T00:06:12.655Z,63.26
2019-05-29T00:08:40.830Z,62.59
2019-05-29T00:11:08.061Z,62.88
2019-05-29T00:13:35.162Z,64.66
2019-05-29T00:16:02.232Z,66.13
2019-05-29T00:18:29.649Z,67.66
2019-05-29T00:20:56.817Z,68.43
2019-05-29T00:23:23.994Z,69.99
2019-05-29T00:25:51.203Z,71.57
2019-05-29T00:28:18.326Z,73.12
2019-05-29T00:30:45.896Z,74.20
2019-05-29T00:33:14.308Z,75.85
2019-05-29T00:35:41.776Z,77.33
2019-05-29T00:38:10.703Z,77.89
2019-05-29T00:40:39.067Z,77.76
2019-05-29T00:43:07.332Z,76.95
2019-05-29T00:45:37.274Z,76.41
2019-05-29T00:48:04.326Z,75.32
2019-05-29T00:50:31.421Z,75.01
2019-05-29T00:53:00.058Z,74.43
2019-05-29T00:55:27.307Z,74.81
2019-05-29T00:57:54.391Z,75.41
2019-05-29T01:00:21.644Z,75.44
2019-05-29T01:02:52.441Z,75.62
2019-05-29T01:05:20.180Z,75.11
2019-05-29T01:07:49.012Z,75.31
2019-05-29T01:10:16.793Z,76.19
2019-05-29T01:12:43.768Z,76.55
2019-05-29T01:15:13.332Z,77.43
2019-05-29T01:17:40.743Z,77.35
2019-05-29T01:20:07.748Z,77.22
2019-05-29T01:22:34.829Z,77.52
2019-05-29T01:25:01.921Z,76.88
2019-05-29T01:27:28.950Z,76.58
2019-05-29T01:29:56.003Z,76.10
2019-05-29T01:32:24.529Z,75.10
2019-05-29T01:34:51.693Z,74.80
2019-05-29T01:37:19.934Z,74.89
2019-05-29T01:39:48.044Z,75.15
2019-05-29T01:42:15.220Z,75.32
2019-05-29T01:44:42.358Z,75.91
2019-05-29T01:47:09.602Z,75.35
2019-05-29T01:49:38.454Z,75.54
2019-05-29T01:52:05.539Z,75.27
2019-05-29T01:54:32.644Z,74.63
2019-05-29T01:56:59.980Z,75.60
2019-05-29T01:59:28.818Z,76.27
2019-05-29T02:01:56.104Z,77.36
2019-05-29T02:04:24.203Z,77.57
2019-05-29T02:06:51.505Z,77.07
2019-05-29T02:09:18.633Z,76.88
2019-05-29T02:11:45.787Z,77.92
2019-05-29T02:14:12.829Z,76.79
2019-05-29T02:16:39.916Z,76.45
2019-05-29T02:19:09.143Z,75.78
2019-05-29T02:21:37.340Z,75.48
2019-05-29T02:24:04.509Z,75.70
2019-05-29T02:26:32.884Z,75.87
2019-05-29T02:28:59.935Z,76.34
2019-05-29T02:31:29.796Z,76.53
2019-05-29T02:33:56.834Z,76.53
2019-05-29T02:36:24.602Z,76.64
2019-05-29T02:38:52.314Z,76.64
2019-05-29T02:41:21.172Z,75.84
2019-05-29T02:43:50.194Z,75.67
2019-05-29T02:46:17.244Z,75.79
2019-05-29T02:48:44.275Z,75.53
2019-05-29T02:51:12.345Z,74.96
2019-05-29T02:53:39.671Z,74.08
2019-05-29T02:56:06.724Z,74.15
2019-05-29T02:58:33.801Z,73.56
2019-05-29T03:01:02.782Z,73.68
2019-05-29T03:03:37.998Z,73.95
2019-05-29T03:05:59.345Z,73.52
2019-05-29T03:08:27.663Z,73.81
2019-05-29T03:10:55.444Z,73.40
2019-05-29T03:13:25.468Z,73.39
2019-05-29T03:16:08.504Z,73.91
2019-05-29T03:18:23.774Z,73.87
2019-05-29T03:20:50.884Z,73.54
2019-05-29T03:23:19.885Z,73.47
2019-05-29T03:25:46.900Z,73.16
2019-05-29T03:28:15.077Z,73.19
2019-05-29T03:30:46.103Z,72.89
2019-05-29T03:33:11.765Z,71.71
2019-05-29T03:35:47.099Z,71.57
2019-05-29T03:38:07.963Z,70.99
2019-05-29T03:40:35.324Z,70.65
2019-05-29T03:43:02.715Z,70.59
2019-05-29T03:45:31.329Z,70.91
2019-05-29T03:47:58.694Z,69.71
2019-05-29T03:50:26.676Z,70.52
2019-05-29T03:52:54.774Z,70.66
2019-05-29T03:55:21.805Z,69.57
2019-05-29T03:57:48.844Z,69.94
2019-05-29T04:00:16.095Z,69.42
2019-05-29T04:02:43.143Z,68.66
2019-05-29T04:05:11.164Z,67.86
2019-05-29T04:07:38.600Z,68.06
2019-05-29T04:10:07.273Z,68.07
2019-05-29T04:12:38.076Z,67.79
2019-05-29T04:15:05.925Z,68.30
2019-05-29T04:17:35.679Z,67.79
2019-05-29T04:20:03.961Z,68.05
2019-05-29T04:22:40.440Z,67.68
2019-05-29T04:25:08.225Z,67.77
2019-05-29T04:27:38.667Z,67.77
2019-05-29T04:30:06.123Z,67.75
2019-05-29T04:32:34.192Z,69.50
2019-05-29T04:35:01.555Z,70.23
2019-05-29T04:37:30.151Z,70.67
2019-05-29T04:39:57.684Z,71.60
2019-05-29T04:42:24.973Z,71.89
2019-05-29T04:44:53.841Z,71.67
2019-05-29T04:47:21.974Z,70.86
2019-05-29T04:49:50.111Z,70.84
2019-05-29T04:52:17.176Z,69.61
2019-05-29T04:54:44.308Z,68.97
2019-05-29T04:57:11.344Z,68.59
2019-05-29T04:59:39.240Z,69.38
2019-05-29T05:02:06.460Z,69.42
2019-05-29T05:04:37.264Z,70.00
2019-05-29T05:07:04.502Z,69.46
2019-05-29T05:09:33.428Z,69.20
2019-05-29T05:12:04.157Z,69.14
2019-05-29T05:14:31.747Z,66.99
2019-05-29T05:16:59.194Z,65.52
2019-05-29T05:19:31.794Z,62.98
2019-05-29T05:21:59.168Z,63.03
2019-05-29T05:24:27.693Z,60.58
2019-05-29T05:26:54.918Z,59.35
2019-05-29T05:29:22.929Z,59.97
2019-05-29T05:31:50.181Z,60.11
2019-05-29T05:34:17.216Z,60.78
2019-05-29T05:36:50.390Z,60.09
2019-05-29T05:39:31.203Z,60.08
2019-05-29T05:41:58.282Z,60.27
2019-05-29T05:44:25.529Z,60.29
2019-05-29T05:46:52.946Z,59.50
2019-05-29T05:49:20.023Z,60.91
2019-05-29T05:51:47.074Z,61.36
2019-05-29T05:54:14.598Z,60.34
2019-05-29T05:56:42.114Z,60.73
2019-05-29T05:59:10.239Z,62.28
2019-05-29T06:01:38.402Z,61.51
2019-05-29T06:04:05.574Z,61.39
2019-05-29T06:06:33.841Z,63.04
2019-05-29T06:09:00.937Z,62.92
2019-05-29T06:11:28.151Z,61.11
2019-05-29T06:13:55.195Z,59.50
2019-05-29T06:16:22.303Z,57.04
2019-05-29T06:18:49.419Z,60.66
2019-05-29T06:21:16.497Z,59.09
2019-05-29T06:23:43.854Z,59.80
2019-05-29T06:26:12.216Z,56.83
2019-05-29T06:28:41.629Z,55.09
2019-05-29T06:31:09.061Z,56.24
2019-05-29T06:33:37.845Z,58.12
2019-05-29T06:36:05.261Z,55.92
2019-05-29T06:38:33.632Z,57.24
2019-05-29T06:41:04.041Z,57.26
2019-05-29T06:43:35.819Z,58.49
2019-05-29T06:46:03.954Z,57.89
2019-05-29T06:48:42.586Z,53.56
2019-05-29T06:51:04.043Z,56.31
2019-05-29T06:53:31.214Z,56.72
2019-05-29T06:56:01.055Z,53.74
2019-05-29T06:58:31.821Z,53.58
2019-05-29T07:01:00.455Z,51.34
2019-05-29T07:03:29.778Z,47.87
2019-05-29T07:05:58.766Z,46.00
2019-05-29T07:08:39.109Z,43.68
2019-05-29T07:11:00.740Z,44.07
2019-05-29T07:13:35.181Z,43.24
2019-05-29T07:16:02.327Z,44.36
2019-05-29T07:18:38.986Z,47.32
2019-05-29T07:21:07.745Z,46.30
2019-05-29T07:23:39.063Z,45.96
2019-05-29T07:26:11.320Z,42.60
2019-05-29T07:29:03.044Z,41.84
2019-05-29T07:31:16.548Z,40.65
2019-05-29T07:33:43.678Z,41.20
2019-05-29T07:36:11.064Z,43.51
2019-05-29T07:38:39.558Z,46.37
2019-05-29T07:41:06.943Z,46.78
2019-05-29T07:43:33.973Z,50.10
2019-05-29T07:46:01.151Z,48.42
2019-05-29T07:48:28.192Z,47.10
2019-05-29T07:51:06.586Z,44.85
2019-05-29T07:53:24.340Z,47.51
2019-05-29T07:55:51.416Z,47.43
2019-05-29T07:58:18.494Z,46.86
2019-05-29T08:01:07.680Z,46.39
2019-05-29T08:03:14.711Z,41.58
2019-05-29T08:05:46.201Z,41.27
2019-05-29T08:08:13.512Z,39.43
2019-05-29T08:10:41.746Z,37.77
2019-05-29T08:13:09.082Z,39.41
2019-05-29T08:15:51.970Z,48.27
2019-05-29T08:18:05.993Z,50.69
2019-05-29T08:20:33.052Z,48.94
2019-05-29T08:23:00.098Z,45.12
2019-05-29T08:25:27.164Z,42.04
2019-05-29T08:27:54.789Z,40.22
2019-05-29T08:30:26.309Z,39.52
2019-05-29T08:32:56.581Z,39.41
2019-05-29T08:35:23.865Z,41.50
2019-05-29T08:37:53.892Z,39.31
2019-05-29T08:40:21.316Z,37.39
2019-05-29T08:42:49.315Z,36.36
2019-05-29T08:45:16.474Z,38.81
2019-05-29T08:47:43.595Z,41.32
2019-05-29T08:50:18.309Z,43.55
2019-05-29T08:52:39.617Z,44.99
2019-05-29T08:55:07.470Z,41.75
2019-05-29T08:57:34.520Z,41.74
2019-05-29T09:00:01.719Z,39.28
2019-05-29T09:02:28.967Z,41.45
2019-05-29T09:04:56.013Z,37.94
2019-05-29T09:07:24.654Z,41.02
2019-05-29T09:09:51.713Z,40.70
2019-05-29T09:12:18.814Z,40.92
2019-05-29T09:14:45.893Z,44.96
2019-05-29T09:17:14.621Z,45.01
2019-05-29T09:19:41.892Z,41.98
2019-05-29T09:22:09.227Z,40.55
2019-05-29T09:24:36.377Z,39.42
2019-05-29T09:27:03.473Z,38.17
2019-05-29T09:29:30.637Z,38.73
2019-05-29T09:31:57.663Z,38.85
2019-05-29T09:34:24.770Z,41.22
2019-05-29T09:36:55.483Z,39.79
2019-05-29T09:39:21.093Z,39.10
2019-05-29T09:41:48.287Z,39.25
2019-05-29T09:44:31.167Z,37.82
2019-05-29T09:46:45.660Z,38.98
2019-05-29T09:49:13.057Z,38.48
2019-05-29T09:51:40.310Z,37.98
2019-05-29T09:54:07.498Z,38.07
2019-05-29T09:56:34.519Z,36.12
2019-05-29T09:59:01.831Z,37.87
2019-05-29T10:01:30.548Z,38.77
2019-05-29T10:04:00.044Z,38.83
2019-05-29T10:06:28.362Z,36.94
2019-05-29T10:08:56.223Z,38.33
2019-05-29T10:11:23.929Z,37.72
2019-05-29T10:13:50.982Z,40.22
2019-05-29T10:16:18.009Z,41.64
2019-05-29T10:18:45.280Z,39.34
2019-05-29T10:21:13.471Z,38.08
2019-05-29T10:23:40.598Z,37.12
2019-05-29T10:26:07.865Z,36.64
2019-05-29T10:28:49.961Z,34.78
2019-05-29T10:31:04.880Z,35.60
2019-05-29T10:33:32.185Z,35.80
2019-05-29T10:36:03.447Z,33.84
2019-05-29T10:38:28.373Z,34.99
2019-05-29T10:41:05.840Z,35.86
2019-05-29T10:43:34.169Z,34.60
2019-05-29T10:45:55.272Z,38.59
2019-05-29T10:48:22.626Z,35.75
2019-05-29T10:50:52.165Z,35.73
2019-05-29T10:53:20.523Z,36.77
2019-05-29T10:55:48.597Z,36.55
2019-05-29T10:58:15.909Z,37.31
2019-05-29T11:00:45.414Z,38.40
2019-05-29T11:03:12.629Z,35.84
2019-05-29T11:05:39.695Z,35.71
2019-05-29T11:08:06.733Z,37.93
2019-05-29T11:10:33.796Z,34.50
2019-05-29T11:13:00.891Z,34.74
2019-05-29T11:15:27.931Z,36.77
2019-05-29T11:17:55.396Z,35.72
2019-05-29T11:20:22.642Z,33.16
2019-05-29T11:22:49.772Z,30.96
2019-05-29T11:25:23.586Z,32.55
2019-05-29T11:27:50.501Z,28.98
2019-05-29T11:30:17.951Z,33.57
2019-05-29T11:32:47.513Z,35.13
2019-05-29T11:35:14.156Z,36.78
2019-05-29T11:37:41.214Z,34.99
2019-05-29T11:40:08.578Z,35.19
2019-05-29T11:42:35.916Z,37.25
2019-05-29T11:45:05.006Z,34.89
2019-05-29T11:47:34.056Z,35.34
2019-05-29T11:50:16.617Z,35.35
2019-05-29T11:52:42.952Z,34.95
2019-05-29T11:55:08.114Z,32.44
2019-05-29T11:57:39.748Z,28.90
2019-05-29T12:00:19.407Z,23.23
2019-05-29T12:02:39.813Z,22.17
2019-05-29T12:05:09.213Z,24.56
2019-05-29T12:07:36.284Z,29.56
2019-05-29T12:10:05.617Z,25.95
2019-05-29T12:12:34.135Z,20.81
2019-05-29T12:15:10.957Z,18.97
2019-05-29T12:17:32.517Z,16.10
2019-05-29T12:20:01.187Z,14.66
2019-05-29T12:22:28.746Z,12.48
2019-05-29T12:24:56.534Z,16.74
2019-05-29T12:27:25.297Z,19.45
2019-05-29T12:29:52.673Z,21.77
2019-05-29T12:32:19.764Z,26.27
2019-05-29T12:34:53.617Z,28.88
2019-05-29T12:37:17.530Z,29.52
2019-05-29T12:39:44.616Z,32.20
2019-05-29T12:42:11.702Z,35.29
2019-05-29T12:44:38.777Z,35.77
2019-05-29T12:47:06.536Z,37.26
2019-05-29T12:49:33.899Z,35.36
2019-05-29T12:52:02.362Z,35.47
2019-05-29T12:54:30.236Z,32.94
2019-05-29T12:56:57.861Z,29.34
2019-05-29T12:59:25.864Z,24.13
2019-05-29T13:01:58.505Z,19.10
2019-05-29T13:05:02.536Z,17.36
2019-05-29T13:07:04.575Z,18.25
2019-05-29T13:09:31.853Z,19.11
2019-05-29T13:11:58.909Z,16.93
2019-05-29T13:14:27.755Z,14.60
2019-05-29T13:16:54.998Z,13.85
2019-05-29T13:19:22.035Z,13.62
2019-05-29T13:21:49.203Z,14.10
2019-05-29T13:24:16.381Z,16.53
2019-05-29T13:26:44.337Z,15.97
2019-05-29T13:29:11.388Z,14.51
2019-05-29T13:31:38.574Z,21.94
2019-05-29T13:34:09.200Z,22.73
2019-05-29T13:36:36.327Z,20.65
2019-05-29T13:39:07.173Z,17.11
2019-05-29T13:41:34.340Z,15.39
2019-05-29T13:44:02.769Z,12.07
2019-05-29T13:46:31.358Z,11.84
2019-05-29T13:48:58.906Z,10.71
2019-05-29T13:51:26.449Z,10.10
2019-05-29T13:54:04.782Z,12.17
2019-05-29T13:56:24.363Z,11.29
2019-05-29T13:58:51.562Z,13.61
2019-05-29T14:01:18.652Z,16.95
2019-05-29T14:03:50.205Z,18.03
2019-05-29T14:06:14.708Z,20.38
2019-05-29T14:08:41.803Z,26.12
2019-05-29T14:11:09.163Z,24.77
2019-05-29T14:13:42.544Z,18.63
2019-05-29T14:16:09.720Z,16.75
2019-05-29T14:18:47.448Z,19.85
2019-05-29T14:21:14.640Z,22.73
2019-05-29T14:23:42.188Z,21.89
2019-05-29T14:26:10.615Z,24.76
2019-05-29T14:28:38.742Z,23.82
2019-05-29T14:31:06.027Z,24.11
2019-05-29T14:33:35.140Z,20.82
2019-05-29T14:36:03.434Z,18.30
2019-05-29T14:38:30.797Z,18.42
2019-05-29T14:40:57.882Z,21.87
2019-05-29T14:43:28.080Z,25.32
2019-05-29T14:45:57.029Z,25.96
2019-05-29T14:48:24.454Z,26.29
2019-05-29T14:50:51.558Z,27.27
2019-05-29T14:53:18.620Z,26.48
2019-05-29T14:55:52.568Z,26.25
2019-05-29T14:58:20.241Z,25.51
2019-05-29T15:00:47.332Z,24.70
2019-05-29T15:03:14.419Z,26.68
2019-05-29T15:05:44.224Z,29.39
2019-05-29T15:08:14.176Z,30.29
2019-05-29T15:10:41.361Z,29.73
2019-05-29T15:13:09.171Z,29.63
2019-05-29T15:15:37.378Z,28.32
2019-05-29T15:18:06.872Z,23.70
2019-05-29T15:20:34.175Z,22.77
2019-05-29T15:23:02.521Z,20.69
2019-05-29T15:25:31.332Z,22.37
2019-05-29T15:27:58.423Z,20.55
2019-05-29T15:30:25.462Z,20.18
2019-05-29T15:32:52.605Z,18.85
2019-05-29T15:35:20.218Z,16.48
2019-05-29T15:37:47.544Z,15.60
2019-05-29T15:40:15.094Z,15.62
2019-05-29T15:42:42.140Z,15.83
2019-05-29T15:45:11.894Z,14.75
2019-05-29T15:47:41.210Z,13.27
2019-05-29T15:50:11.379Z,14.17
2019-05-29T15:52:38.723Z,18.77
2019-05-29T15:55:22.012Z,24.08
2019-05-29T15:57:36.848Z,26.74
2019-05-29T16:00:05.050Z,28.12
2019-05-29T16:02:32.630Z,27.95
2019-05-29T16:04:59.759Z,28.74
2019-05-29T16:07:27.609Z,28.45
2019-05-29T16:09:54.646Z,28.20
2019-05-29T16:12:21.724Z,27.31
2019-05-29T16:14:50.643Z,26.37
2019-05-29T16:17:17.891Z,24.83
2019-05-29T16:19:45.117Z,22.62
2019-05-29T16:22:12.497Z,17.62
2019-05-29T16:24:39.662Z,15.09
2019-05-29T16:27:10.616Z,15.70
2019-05-29T16:29:38.829Z,17.84
2019-05-29T16:32:05.953Z,18.44
2019-05-29T16:34:33.096Z,19.15
2019-05-29T16:37:00.304Z,22.30
2019-05-29T16:39:27.430Z,22.22
2019-05-29T16:41:56.362Z,21.94
2019-05-29T16:44:29.215Z,22.72
2019-05-29T16:46:52.789Z,21.24
2019-05-29T16:49:21.267Z,19.78
2019-05-29T16:51:48.940Z,19.50
2019-05-29T16:54:17.197Z,21.49
2019-05-29T16:56:44.367Z,20.11
2019-05-29T16:59:11.436Z,18.55
2019-05-29T17:01:38.483Z,16.84
2019-05-29T17:04:05.589Z,18.83
2019-05-29T17:06:32.666Z,20.00
2019-05-29T17:09:01.545Z,19.04
2019-05-29T17:11:31.999Z,18.97
2019-05-29T17:14:08.598Z,18.41
2019-05-29T17:16:54.614Z,18.61
2019-05-29T17:19:23.161Z,18.64
2019-05-29T17:21:51.590Z,19.71
2019-05-29T17:24:18.762Z,20.89
2019-05-29T17:26:45.943Z,23.72
2019-05-29T17:29:13.000Z,24.08
2019-05-29T17:31:40.577Z,26.07
2019-05-29T17:34:08.699Z,28.75
2019-05-29T17:36:35.865Z,31.15
2019-05-29T17:39:05.969Z,33.00
2019-05-29T17:41:33.429Z,34.53
2019-05-29T17:44:00.534Z,33.78
2019-05-29T17:46:27.637Z,31.67
2019-05-29T17:48:56.393Z,30.30
2019-05-29T17:51:24.163Z,30.57
2019-05-29T17:53:51.357Z,29.97
2019-05-29T17:56:31.754Z,29.33
2019-05-29T17:58:50.902Z,28.17
2019-05-29T18:01:18.263Z,27.63
2019-05-29T18:03:45.534Z,27.39
2019-05-29T18:06:12.677Z,27.73
2019-05-29T18:08:41.659Z,27.81
2019-05-29T18:11:10.485Z,27.98
2019-05-29T18:13:38.993Z,28.42
2019-05-29T18:16:06.532Z,28.77
2019-05-29T18:21:14.900Z,29.21
2019-05-29T18:23:42.002Z,29.28
2019-05-29T18:26:09.260Z,29.60
2019-05-29T18:28:37.509Z,30.42
2019-05-29T18:31:04.556Z,32.33
2019-05-29T18:33:33.222Z,34.05
2019-05-29T18:36:00.776Z,36.04
2019-05-29T18:38:30.815Z,37.18
2019-05-29T18:40:57.928Z,36.61
2019-05-29T18:43:25.016Z,36.37
2019-05-29T18:45:52.433Z,36.23
2019-05-29T18:48:19.508Z,35.75
2019-05-29T18:50:46.809Z,36.00
2019-05-29T18:53:14.494Z,37.40
2019-05-29T18:55:41.889Z,38.92
2019-05-29T18:58:08.993Z,40.47
2019-05-29T19:00:37.361Z,40.81
2019-05-29T19:03:05.183Z,41.46
2019-05-29T19:05:32.554Z,42.04
2019-05-29T19:07:59.653Z,42.56
2019-05-29T19:10:27.753Z,42.98
2019-05-29T19:12:55.341Z,43.12
2019-05-29T19:15:23.754Z,44.08
2019-05-29T19:17:51.253Z,45.37
2019-05-29T19:20:18.852Z,45.76
2019-05-29T19:22:45.935Z,46.74
2019-05-29T19:25:15.962Z,48.40
2019-05-29T19:27:47.228Z,48.84
2019-05-29T19:30:15.905Z,49.03
2019-05-29T19:32:43.220Z,49.64
2019-05-29T19:35:12.903Z,50.44
2019-05-29T19:37:41.985Z,50.59
2019-05-29T19:40:09.575Z,50.52
2019-05-29T19:42:37.606Z,50.94
2019-05-29T19:45:16.567Z,50.38
2019-05-29T19:48:08.635Z,51.38
2019-05-29T19:50:41.623Z,51.25
2019-05-29T19:53:09.170Z,51.89
2019-05-29T19:55:39.449Z,52.07
2019-05-29T19:58:08.477Z,52.73
2019-05-29T20:00:56.493Z,53.29
2019-05-29T20:03:23.607Z,54.12
2019-05-29T20:05:52.970Z,53.93
2019-05-29T20:08:24.177Z,54.12
2019-05-29T20:10:51.601Z,54.31
2019-05-29T20:13:22.426Z,54.15
2019-05-29T20:15:49.742Z,54.46
2019-05-29T20:18:16.923Z,54.22
2019-05-29T20:20:47.009Z,54.81
2019-05-29T20:23:14.431Z,54.50
2019-05-29T20:25:41.895Z,54.44
2019-05-29T20:28:11.762Z,53.61
2019-05-29T20:30:42.511Z,52.92
2019-05-29T20:33:10.068Z,53.53
2019-05-29T20:35:37.330Z,53.85
2019-05-29T20:38:07.539Z,54.03
2019-05-29T20:40:35.166Z,54.61
2019-05-29T20:43:02.408Z,54.26
2019-05-29T20:45:29.493Z,54.48
2019-05-29T20:47:56.540Z,54.97
2019-05-29T20:50:24.777Z,54.68
2019-05-29T20:52:53.042Z,55.03
2019-05-29T20:55:20.112Z,55.66
2019-05-29T20:57:57.201Z,55.79
2019-05-29T21:00:25.860Z,55.71
2019-05-29T21:02:53.078Z,56.04
2019-05-29T21:05:21.740Z,56.25
2019-05-29T21:07:48.838Z,56.05
2019-05-29T21:10:16.000Z,56.33
2019-05-29T21:12:47.454Z,56.67
2019-05-29T21:15:15.887Z,56.57
2019-05-29T21:17:49.680Z,56.71
2019-05-29T21:20:16.819Z,56.40
2019-05-29T21:22:44.958Z,56.19
2019-05-29T21:25:17.090Z,56.62
2019-05-29T21:27:45.397Z,56.76
2019-05-29T21:30:25.311Z,57.31
2019-05-29T21:32:52.938Z,58.37
2019-05-29T21:35:20.020Z,58.43
2019-05-29T21:37:47.494Z,58.74
2019-05-29T21:40:16.827Z,59.22
2019-05-29T21:42:47.004Z,59.48
2019-05-29T21:45:14.850Z,59.67
2019-05-29T21:47:43.578Z,59.84
2019-05-29T21:50:11.211Z,59.94
2019-05-29T21:52:39.469Z,60.29
2019-05-29T21:55:09.967Z,59.99
2019-05-29T21:57:43.901Z,60.19
2019-05-29T22:00:13.805Z,60.35
2019-05-29T22:02:44.507Z,60.83
2019-05-29T22:05:26.432Z,60.90
2019-05-29T22:08:02.233Z,60.35
2019-05-29T22:10:29.958Z,60.16
2019-05-29T22:12:58.550Z,60.50
2019-05-29T22:15:25.940Z,60.91
2019-05-29T22:17:53.200Z,60.56
2019-05-29T22:20:20.243Z,60.51
2019-05-29T22:22:47.330Z,60.62
2019-05-29T22:25:14.713Z,60.80
2019-05-29T22:27:42.876Z,60.54
2019-05-29T22:30:10.055Z,61.06
2019-05-29T22:32:37.118Z,60.47
2019-05-29T22:35:04.534Z,60.81
2019-05-29T22:37:32.116Z,61.01
2019-05-29T22:39:59.632Z,61.76
2019-05-29T22:42:28.655Z,62.13
2019-05-29T22:44:55.920Z,61.90
2019-05-29T22:47:23.169Z,61.84
2019-05-29T22:49:51.572Z,61.90
2019-05-29T22:52:18.903Z,62.50
2019-05-29T22:54:45.926Z,62.16
2019-05-29T22:57:12.997Z,61.84
2019-05-29T22:59:40.229Z,62.42
2019-05-29T23:02:09.864Z,63.11
2019-05-29T23:04:37.020Z,63.66
2019-05-29T23:07:05.248Z,63.82
2019-05-29T23:09:32.261Z,63.79
2019-05-29T23:12:00.490Z,64.27
2019-05-29T23:14:27.611Z,63.98
2019-05-29T23:16:54.678Z,64.66
2019-05-29T23:19:21.848Z,64.60
2019-05-29T23:21:49.517Z,64.35
2019-05-29T23:24:17.691Z,64.29
2019-05-29T23:26:44.861Z,64.21
2019-05-29T23:29:11.924Z,64.76
2019-05-29T23:31:39.042Z,65.62
2019-05-29T23:34:06.101Z,65.93
2019-05-29T23:36:35.258Z,66.07
2019-05-29T23:39:03.984Z,66.24
2019-05-29T23:41:31.038Z,66.36
2019-05-29T23:43:59.306Z,66.90
2019-05-29T23:46:26.606Z,67.42
2019-05-29T23:48:53.654Z,68.19
2019-05-29T23:51:20.737Z,68.28
2019-05-29T23:53:49.980Z,68.92
2019-05-29T23:56:17.301Z,69.29
2019-05-29T23:58:44.498Z,69.22
